sensor_id;sensor_type;location;lat;lon;timestamp;P1;durP1;ratioP1;P2;durP2;ratioP2
81150;SDS011;70629;-26.026;27.976;2023-08-20T00:01:04;25.85;;;16.27;;
81150;SDS011;70629;-26.026;27.976;2023-08-20T00:02:42;23.95;;;15.68;;
81150;SDS011;70629;-26.026;27.976;2023-08-20T00:04:17;24.25;;;14.52;;
81150;SDS011;70629;-26.026;27.976;2023-08-20T00:05:52;22.85;;;15.50;;
81150;SDS011;70629;-26.026;27.976;2023-08-20T00:07:28;25.77;;;15.35;;
81150;SDS011;70629;-26.026;27.976;2023-08-20T00:09:03;23.60;;;14.75;;
81150;SDS011;70629;-26.026;27.976;2023-08-20T00:10:40;25.05;;;14.25;;
81150;SDS011;70629;-26.026;27.976;2023-08-20T00:12:16;23.73;;;14.05;;
81150;SDS011;70629;-26.026;27.976;2023-08-20T00:13:51;25.00;;;15.43;;
81150;SDS011;70629;-26.026;27.976;2023-08-20T00:15:26;21.17;;;14.40;;
81150;SDS011;70629;-26.026;27.976;2023-08-20T00:17:01;22.17;;;14.02;;
81150;SDS011;70629;-26.026;27.976;2023-08-20T00:18:38;24.73;;;14.55;;
81150;SDS011;70629;-26.026;27.976;2023-08-20T00:20:13;25.75;;;14.77;;
81150;SDS011;70629;-26.026;27.976;2023-08-20T00:21:49;23.52;;;15.00;;
81150;SDS011;70629;-26.026;27.976;2023-08-20T00:23:24;22.83;;;13.35;;
81150;SDS011;70629;-26.026;27.976;2023-08-20T00:25:00;27.23;;;15.73;;
81150;SDS011;70629;-26.026;27.976;2023-08-20T00:26:37;18.55;;;12.05;;
81150;SDS011;70629;-26.026;27.976;2023-08-20T00:28:12;20.35;;;13.82;;
81150;SDS011;70629;-26.026;27.976;2023-08-20T00:29:47;22.65;;;13.65;;
81150;SDS011;70629;-26.026;27.976;2023-08-20T00:31:22;23.52;;;14.07;;
81150;SDS011;70629;-26.026;27.976;2023-08-20T00:32:57;25.80;;;13.25;;
81150;SDS011;70629;-26.026;27.976;2023-08-20T00:34:32;23.35;;;13.45;;
81150;SDS011;70629;-26.026;27.976;2023-08-20T00:36:07;20.70;;;13.07;;
81150;SDS011;70629;-26.026;27.976;2023-08-20T00:37:42;22.60;;;13.05;;
81150;SDS011;70629;-26.026;27.976;2023-08-20T00:39:18;24.65;;;13.10;;
81150;SDS011;70629;-26.026;27.976;2023-08-20T00:40:53;25.17;;;13.07;;
81150;SDS011;70629;-26.026;27.976;2023-08-20T00:42:28;24.20;;;12.32;;
81150;SDS011;70629;-26.026;27.976;2023-08-20T00:44:04;20.13;;;12.82;;
81150;SDS011;70629;-26.026;27.976;2023-08-20T00:45:42;19.17;;;12.43;;
81150;SDS011;70629;-26.026;27.976;2023-08-20T00:47:19;15.70;;;10.82;;
81150;SDS011;70629;-26.026;27.976;2023-08-20T00:48:58;17.73;;;11.73;;
81150;SDS011;70629;-26.026;27.976;2023-08-20T00:50:33;16.95;;;12.02;;
81150;SDS011;70629;-26.026;27.976;2023-08-20T00:52:11;19.80;;;11.18;;
81150;SDS011;70629;-26.026;27.976;2023-08-20T00:53:48;15.57;;;10.35;;
81150;SDS011;70629;-26.026;27.976;2023-08-20T00:55:23;16.75;;;10.55;;
81150;SDS011;70629;-26.026;27.976;2023-08-20T00:56:58;14.60;;;10.00;;
81150;SDS011;70629;-26.026;27.976;2023-08-20T00:58:35;17.58;;;10.98;;
81150;SDS011;70629;-26.026;27.976;2023-08-20T01:00:10;15.25;;;10.43;;
81150;SDS011;70629;-26.026;27.976;2023-08-20T01:01:46;19.45;;;10.90;;
81150;SDS011;70629;-26.026;27.976;2023-08-20T01:03:21;22.20;;;11.15;;
81150;SDS011;70629;-26.026;27.976;2023-08-20T01:04:56;15.63;;;11.30;;
81150;SDS011;70629;-26.026;27.976;2023-08-20T01:08:29;14.65;;;10.10;;
81150;SDS011;70629;-26.026;27.976;2023-08-20T01:12:05;18.63;;;10.82;;
81150;SDS011;70629;-26.026;27.976;2023-08-20T01:13:41;15.52;;;10.52;;
81150;SDS011;70629;-26.026;27.976;2023-08-20T01:15:16;17.52;;;11.13;;
81150;SDS011;70629;-26.026;27.976;2023-08-20T01:16:51;20.13;;;11.35;;
81150;SDS011;70629;-26.026;27.976;2023-08-20T01:18:26;17.67;;;11.50;;
81150;SDS011;70629;-26.026;27.976;2023-08-20T01:20:01;19.13;;;11.32;;
81150;SDS011;70629;-26.026;27.976;2023-08-20T01:21:38;19.10;;;10.82;;
81150;SDS011;70629;-26.026;27.976;2023-08-20T01:29:32;20.65;;;13.93;;
81150;SDS011;70629;-26.026;27.976;2023-08-20T01:31:08;20.80;;;12.30;;
81150;SDS011;70629;-26.026;27.976;2023-08-20T01:32:44;22.38;;;12.57;;
81150;SDS011;70629;-26.026;27.976;2023-08-20T01:34:20;18.33;;;11.05;;
81150;SDS011;70629;-26.026;27.976;2023-08-20T01:35:56;22.13;;;11.20;;
81150;SDS011;70629;-26.026;27.976;2023-08-20T01:37:31;18.30;;;11.63;;
81150;SDS011;70629;-26.026;27.976;2023-08-20T01:39:06;18.95;;;11.00;;
81150;SDS011;70629;-26.026;27.976;2023-08-20T01:40:42;21.35;;;11.43;;
81150;SDS011;70629;-26.026;27.976;2023-08-20T01:42:17;19.67;;;11.00;;
81150;SDS011;70629;-26.026;27.976;2023-08-20T01:43:52;15.98;;;10.23;;
81150;SDS011;70629;-26.026;27.976;2023-08-20T01:45:27;19.35;;;11.07;;
81150;SDS011;70629;-26.026;27.976;2023-08-20T01:47:02;17.00;;;10.55;;
81150;SDS011;70629;-26.026;27.976;2023-08-20T01:48:38;17.60;;;10.23;;
81150;SDS011;70629;-26.026;27.976;2023-08-20T01:50:13;15.82;;;9.77;;
81150;SDS011;70629;-26.026;27.976;2023-08-20T01:51:48;19.25;;;10.82;;
81150;SDS011;70629;-26.026;27.976;2023-08-20T01:53:23;17.27;;;11.10;;
81150;SDS011;70629;-26.026;27.976;2023-08-20T01:54:58;19.73;;;10.80;;
81150;SDS011;70629;-26.026;27.976;2023-08-20T01:56:33;18.52;;;10.38;;
81150;SDS011;70629;-26.026;27.976;2023-08-20T01:58:08;20.80;;;10.43;;
81150;SDS011;70629;-26.026;27.976;2023-08-20T01:59:43;17.73;;;10.45;;
81150;SDS011;70629;-26.026;27.976;2023-08-20T02:01:18;16.83;;;10.65;;
81150;SDS011;70629;-26.026;27.976;2023-08-20T02:02:52;14.93;;;10.18;;
81150;SDS011;70629;-26.026;27.976;2023-08-20T02:04:28;17.17;;;10.07;;
81150;SDS011;70629;-26.026;27.976;2023-08-20T02:06:03;20.00;;;11.85;;
81150;SDS011;70629;-26.026;27.976;2023-08-20T02:07:38;15.02;;;10.77;;
81150;SDS011;70629;-26.026;27.976;2023-08-20T02:09:13;17.00;;;11.15;;
81150;SDS011;70629;-26.026;27.976;2023-08-20T02:10:48;18.77;;;10.35;;
81150;SDS011;70629;-26.026;27.976;2023-08-20T02:12:25;15.38;;;10.55;;
81150;SDS011;70629;-26.026;27.976;2023-08-20T02:14:03;20.27;;;11.32;;
81150;SDS011;70629;-26.026;27.976;2023-08-20T02:15:38;19.75;;;11.50;;
81150;SDS011;70629;-26.026;27.976;2023-08-20T02:17:13;16.67;;;10.85;;
81150;SDS011;70629;-26.026;27.976;2023-08-20T02:18:48;18.42;;;10.73;;
81150;SDS011;70629;-26.026;27.976;2023-08-20T02:20:23;18.33;;;10.27;;
81150;SDS011;70629;-26.026;27.976;2023-08-20T02:21:58;13.60;;;9.98;;
81150;SDS011;70629;-26.026;27.976;2023-08-20T02:23:33;16.65;;;10.65;;
81150;SDS011;70629;-26.026;27.976;2023-08-20T02:26:42;16.40;;;9.07;;
81150;SDS011;70629;-26.026;27.976;2023-08-20T02:28:17;18.42;;;10.55;;
81150;SDS011;70629;-26.026;27.976;2023-08-20T02:29:52;14.45;;;9.27;;
81150;SDS011;70629;-26.026;27.976;2023-08-20T02:31:27;15.98;;;9.88;;
81150;SDS011;70629;-26.026;27.976;2023-08-20T02:33:03;15.57;;;9.43;;
81150;SDS011;70629;-26.026;27.976;2023-08-20T02:34:38;16.55;;;9.35;;
81150;SDS011;70629;-26.026;27.976;2023-08-20T02:36:13;17.60;;;9.73;;
81150;SDS011;70629;-26.026;27.976;2023-08-20T02:37:48;15.88;;;9.13;;
81150;SDS011;70629;-26.026;27.976;2023-08-20T02:39:23;13.70;;;9.45;;
81150;SDS011;70629;-26.026;27.976;2023-08-20T02:40:58;14.88;;;10.02;;
81150;SDS011;70629;-26.026;27.976;2023-08-20T02:42:34;17.65;;;9.27;;
81150;SDS011;70629;-26.026;27.976;2023-08-20T02:45:43;17.10;;;10.93;;
81150;SDS011;70629;-26.026;27.976;2023-08-20T02:47:18;15.32;;;10.00;;
81150;SDS011;70629;-26.026;27.976;2023-08-20T02:48:53;17.75;;;10.82;;
81150;SDS011;70629;-26.026;27.976;2023-08-20T02:50:28;15.00;;;9.77;;
81150;SDS011;70629;-26.026;27.976;2023-08-20T02:52:04;16.02;;;10.10;;
81150;SDS011;70629;-26.026;27.976;2023-08-20T02:53:39;25.08;;;10.57;;
81150;SDS011;70629;-26.026;27.976;2023-08-20T02:55:14;15.93;;;10.15;;
81150;SDS011;70629;-26.026;27.976;2023-08-20T02:58:23;21.35;;;10.85;;
81150;SDS011;70629;-26.026;27.976;2023-08-20T02:59:58;17.98;;;10.63;;
81150;SDS011;70629;-26.026;27.976;2023-08-20T03:01:33;19.95;;;11.23;;
81150;SDS011;70629;-26.026;27.976;2023-08-20T03:03:08;27.42;;;13.10;;
81150;SDS011;70629;-26.026;27.976;2023-08-20T03:04:43;30.02;;;14.00;;
81150;SDS011;70629;-26.026;27.976;2023-08-20T03:06:18;23.17;;;14.02;;
81150;SDS011;70629;-26.026;27.976;2023-08-20T03:07:53;24.20;;;13.80;;
81150;SDS011;70629;-26.026;27.976;2023-08-20T03:09:28;29.08;;;14.60;;
81150;SDS011;70629;-26.026;27.976;2023-08-20T03:11:03;26.27;;;15.00;;
81150;SDS011;70629;-26.026;27.976;2023-08-20T03:14:13;29.08;;;13.98;;
81150;SDS011;70629;-26.026;27.976;2023-08-20T03:17:22;25.40;;;13.18;;
81150;SDS011;70629;-26.026;27.976;2023-08-20T03:18:57;18.75;;;10.93;;
81150;SDS011;70629;-26.026;27.976;2023-08-20T03:20:32;21.95;;;14.00;;
81150;SDS011;70629;-26.026;27.976;2023-08-20T03:22:08;22.58;;;12.70;;
81150;SDS011;70629;-26.026;27.976;2023-08-20T03:25:17;24.90;;;11.35;;
81150;SDS011;70629;-26.026;27.976;2023-08-20T03:26:52;17.42;;;10.57;;
81150;SDS011;70629;-26.026;27.976;2023-08-20T03:28:27;18.77;;;10.55;;
81150;SDS011;70629;-26.026;27.976;2023-08-20T03:30:02;15.50;;;9.68;;
81150;SDS011;70629;-26.026;27.976;2023-08-20T03:31:38;20.25;;;10.57;;
81150;SDS011;70629;-26.026;27.976;2023-08-20T03:33:13;19.02;;;9.98;;
81150;SDS011;70629;-26.026;27.976;2023-08-20T03:34:48;17.63;;;10.68;;
81150;SDS011;70629;-26.026;27.976;2023-08-20T03:36:24;17.25;;;10.60;;
81150;SDS011;70629;-26.026;27.976;2023-08-20T03:37:58;16.55;;;9.95;;
81150;SDS011;70629;-26.026;27.976;2023-08-20T03:39:33;16.63;;;10.40;;
81150;SDS011;70629;-26.026;27.976;2023-08-20T03:41:08;18.02;;;9.45;;
81150;SDS011;70629;-26.026;27.976;2023-08-20T03:44:18;15.55;;;9.60;;
81150;SDS011;70629;-26.026;27.976;2023-08-20T03:45:53;14.77;;;10.55;;
81150;SDS011;70629;-26.026;27.976;2023-08-20T03:47:28;19.17;;;10.50;;
81150;SDS011;70629;-26.026;27.976;2023-08-20T03:49:03;16.25;;;11.40;;
81150;SDS011;70629;-26.026;27.976;2023-08-20T03:50:38;17.65;;;10.32;;
81150;SDS011;70629;-26.026;27.976;2023-08-20T03:52:13;17.15;;;10.13;;
81150;SDS011;70629;-26.026;27.976;2023-08-20T03:53:48;21.42;;;10.65;;
81150;SDS011;70629;-26.026;27.976;2023-08-20T03:55:23;19.48;;;11.90;;
81150;SDS011;70629;-26.026;27.976;2023-08-20T03:56:58;18.58;;;10.30;;
81150;SDS011;70629;-26.026;27.976;2023-08-20T03:58:33;22.98;;;11.18;;
81150;SDS011;70629;-26.026;27.976;2023-08-20T04:01:43;21.13;;;10.80;;
81150;SDS011;70629;-26.026;27.976;2023-08-20T04:04:53;22.38;;;11.75;;
81150;SDS011;70629;-26.026;27.976;2023-08-20T04:06:28;25.55;;;13.48;;
81150;SDS011;70629;-26.026;27.976;2023-08-20T04:09:38;24.65;;;12.10;;
81150;SDS011;70629;-26.026;27.976;2023-08-20T04:11:13;26.30;;;13.07;;
81150;SDS011;70629;-26.026;27.976;2023-08-20T04:12:48;23.13;;;13.05;;
81150;SDS011;70629;-26.026;27.976;2023-08-20T04:15:57;22.60;;;11.80;;
81150;SDS011;70629;-26.026;27.976;2023-08-20T04:17:33;25.73;;;12.30;;
81150;SDS011;70629;-26.026;27.976;2023-08-20T04:19:08;23.60;;;12.10;;
81150;SDS011;70629;-26.026;27.976;2023-08-20T04:20:43;24.95;;;12.40;;
81150;SDS011;70629;-26.026;27.976;2023-08-20T04:23:53;30.50;;;13.10;;
81150;SDS011;70629;-26.026;27.976;2023-08-20T04:27:02;24.75;;;12.45;;
81150;SDS011;70629;-26.026;27.976;2023-08-20T04:28:37;26.75;;;12.82;;
81150;SDS011;70629;-26.026;27.976;2023-08-20T04:30:12;26.83;;;13.98;;
81150;SDS011;70629;-26.026;27.976;2023-08-20T04:31:47;21.88;;;12.18;;
81150;SDS011;70629;-26.026;27.976;2023-08-20T04:34:56;25.02;;;12.55;;
81150;SDS011;70629;-26.026;27.976;2023-08-20T04:36:31;23.92;;;14.55;;
81150;SDS011;70629;-26.026;27.976;2023-08-20T04:39:41;23.50;;;11.90;;
81150;SDS011;70629;-26.026;27.976;2023-08-20T04:42:51;24.13;;;11.48;;
81150;SDS011;70629;-26.026;27.976;2023-08-20T04:44:26;20.02;;;12.73;;
81150;SDS011;70629;-26.026;27.976;2023-08-20T04:47:35;22.30;;;11.73;;
81150;SDS011;70629;-26.026;27.976;2023-08-20T04:49:11;20.77;;;11.73;;
81150;SDS011;70629;-26.026;27.976;2023-08-20T04:50:46;22.75;;;12.23;;
81150;SDS011;70629;-26.026;27.976;2023-08-20T04:52:21;24.40;;;12.52;;
81150;SDS011;70629;-26.026;27.976;2023-08-20T04:55:30;22.60;;;12.05;;
81150;SDS011;70629;-26.026;27.976;2023-08-20T04:57:05;23.83;;;11.57;;
81150;SDS011;70629;-26.026;27.976;2023-08-20T04:58:40;21.90;;;11.27;;
81150;SDS011;70629;-26.026;27.976;2023-08-20T05:00:15;19.98;;;12.23;;
81150;SDS011;70629;-26.026;27.976;2023-08-20T05:01:50;21.67;;;12.18;;
81150;SDS011;70629;-26.026;27.976;2023-08-20T05:04:59;19.30;;;11.45;;
81150;SDS011;70629;-26.026;27.976;2023-08-20T05:06:35;20.63;;;11.05;;
81150;SDS011;70629;-26.026;27.976;2023-08-20T05:08:11;20.35;;;10.85;;
81150;SDS011;70629;-26.026;27.976;2023-08-20T05:09:49;21.55;;;11.45;;
81150;SDS011;70629;-26.026;27.976;2023-08-20T05:11:24;19.27;;;11.05;;
81150;SDS011;70629;-26.026;27.976;2023-08-20T05:12:59;20.77;;;11.90;;
81150;SDS011;70629;-26.026;27.976;2023-08-20T05:14:34;25.33;;;12.23;;
81150;SDS011;70629;-26.026;27.976;2023-08-20T05:16:09;20.35;;;10.43;;
81150;SDS011;70629;-26.026;27.976;2023-08-20T05:19:18;21.08;;;11.38;;
81150;SDS011;70629;-26.026;27.976;2023-08-20T05:20:53;19.75;;;10.65;;
81150;SDS011;70629;-26.026;27.976;2023-08-20T05:24:03;15.05;;;9.38;;
81150;SDS011;70629;-26.026;27.976;2023-08-20T05:25:39;21.10;;;10.15;;
81150;SDS011;70629;-26.026;27.976;2023-08-20T05:27:15;24.38;;;11.05;;
81150;SDS011;70629;-26.026;27.976;2023-08-20T05:28:53;16.95;;;10.50;;
81150;SDS011;70629;-26.026;27.976;2023-08-20T05:32:02;18.88;;;10.23;;
81150;SDS011;70629;-26.026;27.976;2023-08-20T05:33:38;23.98;;;11.98;;
81150;SDS011;70629;-26.026;27.976;2023-08-20T05:36:47;18.35;;;11.45;;
81150;SDS011;70629;-26.026;27.976;2023-08-20T05:39:56;21.40;;;13.25;;
81150;SDS011;70629;-26.026;27.976;2023-08-20T05:41:31;27.25;;;14.90;;
81150;SDS011;70629;-26.026;27.976;2023-08-20T05:44:40;22.52;;;14.45;;
81150;SDS011;70629;-26.026;27.976;2023-08-20T05:46:16;23.42;;;15.63;;
81150;SDS011;70629;-26.026;27.976;2023-08-20T05:47:51;29.52;;;15.52;;
81150;SDS011;70629;-26.026;27.976;2023-08-20T05:49:26;25.67;;;15.80;;
81150;SDS011;70629;-26.026;27.976;2023-08-20T05:51:03;23.35;;;15.82;;
81150;SDS011;70629;-26.026;27.976;2023-08-20T05:52:38;28.33;;;15.35;;
81150;SDS011;70629;-26.026;27.976;2023-08-20T05:54:13;25.77;;;15.98;;
81150;SDS011;70629;-26.026;27.976;2023-08-20T05:55:48;27.42;;;17.85;;
81150;SDS011;70629;-26.026;27.976;2023-08-20T05:57:24;28.67;;;19.85;;
81150;SDS011;70629;-26.026;27.976;2023-08-20T05:58:59;31.50;;;20.48;;
81150;SDS011;70629;-26.026;27.976;2023-08-20T06:00:34;31.33;;;20.45;;
81150;SDS011;70629;-26.026;27.976;2023-08-20T06:02:08;32.35;;;21.98;;
81150;SDS011;70629;-26.026;27.976;2023-08-20T06:03:43;32.30;;;21.98;;
81150;SDS011;70629;-26.026;27.976;2023-08-20T06:05:18;30.17;;;22.10;;
81150;SDS011;70629;-26.026;27.976;2023-08-20T06:06:53;32.30;;;23.20;;
81150;SDS011;70629;-26.026;27.976;2023-08-20T06:08:28;34.22;;;22.20;;
81150;SDS011;70629;-26.026;27.976;2023-08-20T06:10:03;39.22;;;24.42;;
81150;SDS011;70629;-26.026;27.976;2023-08-20T06:11:39;34.15;;;22.38;;
81150;SDS011;70629;-26.026;27.976;2023-08-20T06:13:14;37.42;;;23.05;;
81150;SDS011;70629;-26.026;27.976;2023-08-20T06:14:49;36.65;;;23.55;;
81150;SDS011;70629;-26.026;27.976;2023-08-20T06:16:24;34.53;;;22.95;;
81150;SDS011;70629;-26.026;27.976;2023-08-20T06:17:59;29.45;;;21.00;;
81150;SDS011;70629;-26.026;27.976;2023-08-20T06:19:34;30.67;;;20.52;;
81150;SDS011;70629;-26.026;27.976;2023-08-20T06:21:11;32.95;;;20.33;;
81150;SDS011;70629;-26.026;27.976;2023-08-20T06:22:47;29.05;;;20.52;;
81150;SDS011;70629;-26.026;27.976;2023-08-20T06:24:22;31.98;;;21.13;;
81150;SDS011;70629;-26.026;27.976;2023-08-20T06:25:56;29.95;;;19.60;;
81150;SDS011;70629;-26.026;27.976;2023-08-20T06:27:32;29.48;;;20.05;;
81150;SDS011;70629;-26.026;27.976;2023-08-20T06:29:08;26.25;;;19.50;;
81150;SDS011;70629;-26.026;27.976;2023-08-20T06:30:44;26.50;;;19.15;;
81150;SDS011;70629;-26.026;27.976;2023-08-20T06:32:19;26.58;;;18.63;;
81150;SDS011;70629;-26.026;27.976;2023-08-20T06:33:54;23.05;;;17.50;;
81150;SDS011;70629;-26.026;27.976;2023-08-20T06:35:29;25.67;;;17.70;;
81150;SDS011;70629;-26.026;27.976;2023-08-20T06:37:04;27.23;;;17.70;;
81150;SDS011;70629;-26.026;27.976;2023-08-20T06:38:39;26.33;;;16.73;;
81150;SDS011;70629;-26.026;27.976;2023-08-20T06:40:14;26.25;;;15.48;;
81150;SDS011;70629;-26.026;27.976;2023-08-20T06:41:48;21.05;;;15.77;;
81150;SDS011;70629;-26.026;27.976;2023-08-20T06:43:24;21.33;;;15.88;;
81150;SDS011;70629;-26.026;27.976;2023-08-20T06:44:59;20.45;;;14.40;;
81150;SDS011;70629;-26.026;27.976;2023-08-20T06:46:34;22.80;;;14.63;;
81150;SDS011;70629;-26.026;27.976;2023-08-20T06:48:08;22.60;;;14.07;;
81150;SDS011;70629;-26.026;27.976;2023-08-20T06:49:44;19.35;;;12.85;;
81150;SDS011;70629;-26.026;27.976;2023-08-20T06:52:56;21.30;;;13.57;;
81150;SDS011;70629;-26.026;27.976;2023-08-20T06:54:30;20.58;;;11.68;;
81150;SDS011;70629;-26.026;27.976;2023-08-20T06:56:06;16.73;;;11.77;;
81150;SDS011;70629;-26.026;27.976;2023-08-20T06:57:45;19.77;;;11.77;;
81150;SDS011;70629;-26.026;27.976;2023-08-20T06:59:20;17.23;;;11.02;;
81150;SDS011;70629;-26.026;27.976;2023-08-20T07:00:54;24.10;;;11.27;;
81150;SDS011;70629;-26.026;27.976;2023-08-20T07:02:30;15.35;;;10.65;;
81150;SDS011;70629;-26.026;27.976;2023-08-20T07:04:05;16.02;;;9.90;;
81150;SDS011;70629;-26.026;27.976;2023-08-20T07:05:40;17.35;;;9.43;;
81150;SDS011;70629;-26.026;27.976;2023-08-20T07:07:15;18.70;;;8.55;;
81150;SDS011;70629;-26.026;27.976;2023-08-20T07:08:50;16.40;;;9.23;;
81150;SDS011;70629;-26.026;27.976;2023-08-20T07:10:25;18.27;;;10.02;;
81150;SDS011;70629;-26.026;27.976;2023-08-20T07:12:01;15.05;;;9.52;;
81150;SDS011;70629;-26.026;27.976;2023-08-20T07:13:36;15.38;;;9.65;;
81150;SDS011;70629;-26.026;27.976;2023-08-20T07:15:11;13.45;;;8.98;;
81150;SDS011;70629;-26.026;27.976;2023-08-20T07:16:47;20.05;;;9.88;;
81150;SDS011;70629;-26.026;27.976;2023-08-20T07:18:22;15.32;;;9.52;;
81150;SDS011;70629;-26.026;27.976;2023-08-20T07:19:57;13.82;;;9.38;;
81150;SDS011;70629;-26.026;27.976;2023-08-20T07:21:32;14.10;;;9.23;;
81150;SDS011;70629;-26.026;27.976;2023-08-20T07:23:07;14.63;;;8.40;;
81150;SDS011;70629;-26.026;27.976;2023-08-20T07:24:42;14.88;;;9.00;;
81150;SDS011;70629;-26.026;27.976;2023-08-20T07:26:17;12.02;;;8.30;;
81150;SDS011;70629;-26.026;27.976;2023-08-20T07:27:52;15.85;;;8.95;;
81150;SDS011;70629;-26.026;27.976;2023-08-20T07:29:33;13.75;;;9.95;;
81150;SDS011;70629;-26.026;27.976;2023-08-20T07:31:08;16.98;;;9.77;;
81150;SDS011;70629;-26.026;27.976;2023-08-20T07:32:42;15.35;;;10.05;;
81150;SDS011;70629;-26.026;27.976;2023-08-20T07:34:18;18.33;;;11.75;;
81150;SDS011;70629;-26.026;27.976;2023-08-20T07:35:53;18.92;;;11.82;;
81150;SDS011;70629;-26.026;27.976;2023-08-20T07:37:28;26.48;;;18.58;;
81150;SDS011;70629;-26.026;27.976;2023-08-20T07:39:03;40.53;;;25.67;;
81150;SDS011;70629;-26.026;27.976;2023-08-20T07:40:38;48.42;;;29.92;;
81150;SDS011;70629;-26.026;27.976;2023-08-20T07:42:13;57.55;;;37.92;;
81150;SDS011;70629;-26.026;27.976;2023-08-20T07:43:48;65.10;;;42.33;;
81150;SDS011;70629;-26.026;27.976;2023-08-20T07:45:23;55.40;;;38.60;;
81150;SDS011;70629;-26.026;27.976;2023-08-20T07:46:58;59.65;;;37.40;;
81150;SDS011;70629;-26.026;27.976;2023-08-20T07:48:33;56.78;;;38.58;;
81150;SDS011;70629;-26.026;27.976;2023-08-20T07:50:09;59.22;;;39.38;;
81150;SDS011;70629;-26.026;27.976;2023-08-20T07:51:44;64.25;;;41.97;;
81150;SDS011;70629;-26.026;27.976;2023-08-20T07:53:19;69.07;;;44.17;;
81150;SDS011;70629;-26.026;27.976;2023-08-20T07:54:54;85.07;;;55.33;;
81150;SDS011;70629;-26.026;27.976;2023-08-20T07:56:29;79.40;;;52.58;;
81150;SDS011;70629;-26.026;27.976;2023-08-20T07:58:04;77.80;;;52.67;;
81150;SDS011;70629;-26.026;27.976;2023-08-20T07:59:39;74.07;;;52.22;;
81150;SDS011;70629;-26.026;27.976;2023-08-20T08:01:14;99.47;;;65.53;;
81150;SDS011;70629;-26.026;27.976;2023-08-20T08:02:49;103.63;;;70.32;;
81150;SDS011;70629;-26.026;27.976;2023-08-20T08:04:24;95.13;;;66.93;;
81150;SDS011;70629;-26.026;27.976;2023-08-20T08:05:59;114.32;;;71.07;;
81150;SDS011;70629;-26.026;27.976;2023-08-20T08:07:34;102.75;;;69.20;;
81150;SDS011;70629;-26.026;27.976;2023-08-20T08:09:19;101.47;;;68.53;;
81150;SDS011;70629;-26.026;27.976;2023-08-20T08:11:02;104.25;;;67.65;;
81150;SDS011;70629;-26.026;27.976;2023-08-20T08:12:37;98.18;;;69.82;;
81150;SDS011;70629;-26.026;27.976;2023-08-20T08:14:12;100.82;;;70.68;;
81150;SDS011;70629;-26.026;27.976;2023-08-20T08:15:47;102.47;;;69.63;;
81150;SDS011;70629;-26.026;27.976;2023-08-20T08:17:23;119.00;;;80.43;;
81150;SDS011;70629;-26.026;27.976;2023-08-20T08:18:58;121.53;;;81.30;;
81150;SDS011;70629;-26.026;27.976;2023-08-20T08:20:33;111.05;;;76.75;;
81150;SDS011;70629;-26.026;27.976;2023-08-20T08:22:08;102.55;;;69.97;;
81150;SDS011;70629;-26.026;27.976;2023-08-20T08:23:43;101.65;;;69.55;;
81150;SDS011;70629;-26.026;27.976;2023-08-20T08:25:18;102.07;;;66.82;;
81150;SDS011;70629;-26.026;27.976;2023-08-20T08:26:53;106.78;;;72.95;;
81150;SDS011;70629;-26.026;27.976;2023-08-20T08:28:28;106.78;;;67.20;;
81150;SDS011;70629;-26.026;27.976;2023-08-20T08:30:03;103.93;;;65.35;;
81150;SDS011;70629;-26.026;27.976;2023-08-20T08:31:38;96.90;;;67.82;;
81150;SDS011;70629;-26.026;27.976;2023-08-20T08:33:13;94.72;;;64.20;;
81150;SDS011;70629;-26.026;27.976;2023-08-20T08:34:48;88.25;;;58.80;;
81150;SDS011;70629;-26.026;27.976;2023-08-20T08:36:23;78.05;;;50.97;;
81150;SDS011;70629;-26.026;27.976;2023-08-20T08:37:59;78.35;;;52.42;;
81150;SDS011;70629;-26.026;27.976;2023-08-20T08:39:34;83.00;;;54.55;;
81150;SDS011;70629;-26.026;27.976;2023-08-20T08:41:10;70.03;;;50.58;;
81150;SDS011;70629;-26.026;27.976;2023-08-20T08:42:47;74.88;;;50.22;;
81150;SDS011;70629;-26.026;27.976;2023-08-20T08:44:26;71.32;;;52.20;;
81150;SDS011;70629;-26.026;27.976;2023-08-20T08:46:02;77.60;;;55.38;;
81150;SDS011;70629;-26.026;27.976;2023-08-20T08:47:41;85.30;;;55.95;;
81150;SDS011;70629;-26.026;27.976;2023-08-20T08:49:17;81.70;;;53.35;;
81150;SDS011;70629;-26.026;27.976;2023-08-20T08:50:53;83.85;;;54.75;;
81150;SDS011;70629;-26.026;27.976;2023-08-20T08:52:28;84.60;;;54.38;;
81150;SDS011;70629;-26.026;27.976;2023-08-20T08:54:05;86.22;;;55.72;;
81150;SDS011;70629;-26.026;27.976;2023-08-20T08:55:43;79.60;;;55.42;;
81150;SDS011;70629;-26.026;27.976;2023-08-20T08:57:18;86.32;;;57.30;;
81150;SDS011;70629;-26.026;27.976;2023-08-20T08:58:53;87.97;;;56.10;;
81150;SDS011;70629;-26.026;27.976;2023-08-20T09:00:28;82.90;;;56.03;;
81150;SDS011;70629;-26.026;27.976;2023-08-20T09:02:09;79.10;;;52.00;;
81150;SDS011;70629;-26.026;27.976;2023-08-20T09:03:45;72.07;;;47.45;;
81150;SDS011;70629;-26.026;27.976;2023-08-20T09:05:21;68.30;;;47.75;;
81150;SDS011;70629;-26.026;27.976;2023-08-20T09:06:56;64.55;;;44.88;;
81150;SDS011;70629;-26.026;27.976;2023-08-20T09:08:31;86.68;;;57.25;;
81150;SDS011;70629;-26.026;27.976;2023-08-20T09:10:07;77.93;;;54.03;;
81150;SDS011;70629;-26.026;27.976;2023-08-20T09:11:42;73.50;;;50.30;;
81150;SDS011;70629;-26.026;27.976;2023-08-20T09:13:17;69.55;;;48.60;;
81150;SDS011;70629;-26.026;27.976;2023-08-20T09:14:57;67.50;;;46.35;;
81150;SDS011;70629;-26.026;27.976;2023-08-20T09:16:34;69.80;;;45.45;;
81150;SDS011;70629;-26.026;27.976;2023-08-20T09:18:09;65.70;;;46.28;;
81150;SDS011;70629;-26.026;27.976;2023-08-20T09:19:45;83.95;;;56.25;;
81150;SDS011;70629;-26.026;27.976;2023-08-20T09:21:20;89.43;;;58.08;;
81150;SDS011;70629;-26.026;27.976;2023-08-20T09:23:12;97.35;;;63.10;;
81150;SDS011;70629;-26.026;27.976;2023-08-20T09:24:55;113.63;;;65.75;;
81150;SDS011;70629;-26.026;27.976;2023-08-20T09:26:31;92.32;;;60.85;;
81150;SDS011;70629;-26.026;27.976;2023-08-20T09:28:06;89.72;;;57.30;;
81150;SDS011;70629;-26.026;27.976;2023-08-20T09:29:50;75.57;;;54.40;;
81150;SDS011;70629;-26.026;27.976;2023-08-20T09:31:37;70.00;;;43.45;;
81150;SDS011;70629;-26.026;27.976;2023-08-20T09:33:13;60.42;;;41.67;;
81150;SDS011;70629;-26.026;27.976;2023-08-20T09:34:48;69.35;;;45.38;;
81150;SDS011;70629;-26.026;27.976;2023-08-20T09:36:30;64.20;;;42.65;;
81150;SDS011;70629;-26.026;27.976;2023-08-20T09:38:08;58.25;;;40.10;;
81150;SDS011;70629;-26.026;27.976;2023-08-20T09:39:43;64.25;;;40.28;;
81150;SDS011;70629;-26.026;27.976;2023-08-20T09:41:18;57.72;;;40.92;;
81150;SDS011;70629;-26.026;27.976;2023-08-20T09:42:53;56.28;;;39.05;;
81150;SDS011;70629;-26.026;27.976;2023-08-20T09:44:32;61.35;;;41.30;;
81150;SDS011;70629;-26.026;27.976;2023-08-20T09:46:09;58.33;;;39.35;;
81150;SDS011;70629;-26.026;27.976;2023-08-20T09:47:50;53.13;;;37.17;;
81150;SDS011;70629;-26.026;27.976;2023-08-20T09:49:30;53.67;;;38.10;;
81150;SDS011;70629;-26.026;27.976;2023-08-20T09:53:03;55.63;;;38.47;;
81150;SDS011;70629;-26.026;27.976;2023-08-20T09:56:30;65.40;;;47.83;;
81150;SDS011;70629;-26.026;27.976;2023-08-20T09:59:45;66.32;;;48.83;;